METAR Data
IDs: Format: Raw Decoded Include TAF

Data at: 1752 UTC 16 Oct 2021

KGOP 161735Z AUTO 04008G16KT 360V070 10SM CLR 20/M00 A3041 RMK AO2
KGOP 161715Z AUTO 02010G15KT 10SM CLR 20/01 A3041 RMK AO2
KGOP 161655Z AUTO 36008G15KT 10SM CLR 20/01 A3042 RMK AO2
KGOP 161635Z AUTO 05008KT 10SM CLR 19/00 A3042 RMK AO2
KGOP 161615Z AUTO 36012KT 10SM CLR 19/00 A3042 RMK AO2
KGOP 161555Z AUTO 03009KT 10SM CLR 18/03 A3042 RMK AO2
KGOP 161535Z AUTO VRB03KT 10SM CLR 17/06 A3042 RMK AO2
KGOP 161515Z AUTO VRB04KT 10SM CLR 16/06 A3042 RMK AO2
KGOP 161455Z AUTO 00000KT 10SM CLR 15/06 A3041 RMK AO2
KGOP 161435Z AUTO 35004KT 10SM CLR 14/06 A3041 RMK AO2
KGOP 161415Z AUTO 00000KT 10SM CLR 13/07 A3040 RMK AO2
KGOP 161355Z AUTO 32004KT 10SM CLR 12/07 A3040 RMK AO2
KGOP 161335Z AUTO 00000KT 10SM CLR 11/06 A3039 RMK AO2
KGOP 161315Z AUTO 00000KT 10SM CLR 09/06 A3038 RMK AO2
KGOP 161255Z AUTO 00000KT 10SM CLR 08/05 A3038 RMK AO2
KGOP 161235Z AUTO 00000KT 10SM CLR 08/05 A3037 RMK AO2
KGOP 161215Z AUTO 00000KT 10SM CLR 09/05 A3036 RMK AO2
KGOP 161155Z AUTO 00000KT 10SM CLR 09/05 A3035 RMK AO2
KGOP 161135Z AUTO 00000KT 10SM CLR 09/05 A3035 RMK AO2
KGOP 161115Z AUTO 00000KT 10SM CLR 10/05 A3034 RMK AO2
KGOP 161055Z AUTO 31004KT 10SM CLR 10/05 A3034 RMK AO2
KGOP 161035Z AUTO 31004KT 10SM CLR 10/05 A3033 RMK AO2
KGOP 161015Z AUTO 00000KT 10SM CLR 10/06 A3033 RMK AO2
KGOP 160955Z AUTO 32003KT 10SM CLR 10/06 A3033 RMK AO2
KGOP 160935Z AUTO 31003KT 10SM CLR 10/06 A3032 RMK AO2
KGOP 160915Z AUTO 00000KT 10SM CLR 11/06 A3032 RMK AO2
KGOP 160855Z AUTO 34004KT 10SM CLR 11/06 A3032 RMK AO2
KGOP 160835Z AUTO 33003KT 10SM CLR 11/06 A3032 RMK AO2
KGOP 160815Z AUTO 32004KT 10SM CLR 11/06 A3032 RMK AO2
KGOP 160755Z AUTO 00000KT 10SM CLR 12/06 A3032 RMK AO2
KGOP 160735Z AUTO 00000KT 10SM CLR 11/07 A3032 RMK AO2
KGOP 160715Z AUTO 00000KT 10SM CLR 12/07 A3031 RMK AO2
KGOP 160655Z AUTO 00000KT 10SM CLR 12/07 A3031 RMK AO2
KGOP 160635Z AUTO 00000KT 10SM CLR 11/08 A3030 RMK AO2
KGOP 160615Z AUTO 00000KT 10SM CLR 12/08 A3030 RMK AO2
KGOP 160555Z AUTO 00000KT 10SM CLR 12/08 A3030 RMK AO2
KGOP 160535Z AUTO 00000KT 10SM CLR 13/07 A3030 RMK AO2
KGOP 160515Z AUTO 00000KT 10SM CLR 14/08 A3029 RMK AO2
KGOP 160455Z AUTO 00000KT 10SM CLR 14/08 A3029 RMK AO2
KGOP 160435Z AUTO 00000KT 10SM CLR 14/08 A3028 RMK AO2
KGOP 160415Z AUTO 35004KT 10SM CLR 15/08 A3028 RMK AO2
KGOP 160355Z AUTO 35003KT 10SM CLR 16/08 A3027 RMK AO2
KGOP 160335Z AUTO 35006KT 10SM CLR 16/08 A3026 RMK AO2
KGOP 160315Z AUTO 36006KT 10SM CLR 16/08 A3025 RMK AO2
KGOP 160255Z AUTO 35006KT 10SM CLR 17/08 A3024 RMK AO2
KGOP 160235Z AUTO 35007KT 10SM CLR 17/09 A3022 RMK AO2
KGOP 160215Z AUTO 35008KT 10SM CLR 18/08 A3021 RMK AO2
KGOP 160155Z AUTO 34007KT 10SM CLR 18/09 A3020 RMK AO2
KGOP 160135Z AUTO 34009KT 10SM CLR 19/09 A3019 RMK AO2
KGOP 160115Z AUTO 34008KT 10SM CLR 19/10 A3018 RMK AO2
KGOP 160055Z AUTO 35008KT 10SM CLR 20/10 A3017 RMK AO2
KGOP 160035Z AUTO 35008KT 10SM CLR 20/10 A3016 RMK AO2
KGOP 160015Z AUTO 34008KT 10SM CLR 20/10 A3015 RMK AO2
KGOP 152355Z AUTO 35007G14KT 10SM CLR 21/11 A3014 RMK AO2
KGOP 152335Z AUTO 35010KT 10SM CLR 22/10 A3012 RMK AO2
KGOP 152315Z AUTO 36012KT 10SM CLR 22/11 A3011 RMK AO2
KGOP 152255Z AUTO 35009G15KT 10SM CLR 23/12 A3011 RMK AO2
KGOP 152235Z AUTO 33015KT 10SM CLR 23/12 A3010 RMK AO2
KGOP 152215Z AUTO 34010G17KT 10SM CLR 24/12 A3009 RMK AO2
KGOP 152155Z AUTO 34013G19KT 10SM CLR 24/13 A3009 RMK AO2
KGOP 152135Z AUTO 33012G20KT 10SM CLR 24/12 A3008 RMK AO2
KGOP 152115Z AUTO 35013KT 10SM CLR 24/13 A3007 RMK AO2
KGOP 152055Z AUTO 33013KT 10SM CLR 24/13 A3007 RMK AO2
KGOP 152035Z AUTO 35015KT 10SM CLR 24/14 A3007 RMK AO2
KGOP 152015Z AUTO 32012G18KT 300V360 10SM CLR 24/15 A3007 RMK AO2
KGOP 151955Z AUTO 33013KT 10SM CLR 24/15 A3007 RMK AO2
KGOP 151935Z AUTO 33014G19KT 10SM CLR 24/15 A3007 RMK AO2
KGOP 151915Z AUTO 32013G19KT 10SM CLR 24/15 A3007 RMK AO2
KGOP 151855Z AUTO 33015G20KT 10SM CLR 24/15 A3007 RMK AO2
KGOP 151835Z AUTO 33013KT 10SM FEW024 FEW080 23/16 A3007 RMK AO2
KGOP 151815Z AUTO 33015G22KT 10SM FEW021 FEW080 FEW120 22/16 A3007 RMK AO2
KGOP 151755Z AUTO 33014G19KT 10SM FEW020 FEW090 FEW110 22/16 A3008 RMK AO2
KGOP 151735Z AUTO 34014G20KT 10SM CLR 23/16 A3007 RMK AO2
KGOP 151715Z AUTO 33013G19KT 10SM CLR 23/16 A3006 RMK AO2
KGOP 151655Z AUTO 31015KT 10SM CLR 22/15 A3006 RMK AO2
KGOP 151635Z AUTO 32013G20KT 10SM FEW029 22/15 A3005 RMK AO2
KGOP 151615Z AUTO 32014G22KT 10SM BKN029 23/17 A3004 RMK AO2
KGOP 151555Z AUTO 31016G24KT 10SM FEW022 SCT028 25/20 A3003 RMK AO2
KGOP 151535Z AUTO 27010KT 10SM FEW016 SCT021 SCT026 26/21 A3001 RMK AO2
KGOP 151515Z AUTO 27007G15KT 10SM SCT017 26/21 A3000 RMK AO2
KGOP 151455Z AUTO 26005KT 10SM FEW020 25/22 A3000 RMK AO2
KGOP 151435Z AUTO 26006KT 10SM BKN016 BKN022 24/22 A2999 RMK AO2
KGOP 151415Z AUTO 23006KT 10SM BKN015 24/22 A2998 RMK AO2
KGOP 151355Z AUTO 22006KT 10SM SCT016 23/22 A2997 RMK AO2
KGOP 151335Z AUTO 21006KT 10SM CLR 23/22 A2996 RMK AO2
KGOP 151315Z AUTO 18005KT 9SM CLR 22/22 A2994 RMK AO2
KGOP 151255Z AUTO 18004KT 9SM SCT012 22/22 A2994 RMK AO2
KGOP 151235Z AUTO 20005KT 10SM BKN013 22/22 A2993 RMK AO2
KGOP 151215Z AUTO 21005KT 9SM SCT014 22/22 A2993 RMK AO2
KGOP 151155Z AUTO 22006KT 9SM FEW009 BKN014 22/22 A2993 RMK AO2
KGOP 151135Z AUTO 24004KT 6SM BR SCT005 BKN009 22/22 A2993 RMK AO2
KGOP 151115Z AUTO 23006KT 4SM BR BKN003 22/22 A2992 RMK AO2
KGOP 151055Z AUTO 3SM BR OVC003 21/21 A2992 RMK AO2
KGOP 151035Z AUTO 3SM BR BKN003 21/21 A2992 RMK AO2
KGOP 151015Z AUTO 5SM BR FEW005 21/21 A2991 RMK AO2
KGOP 150955Z AUTO 12005KT 7SM CLR 21/21 A2990 RMK AO2
KGOP 150935Z AUTO 9SM CLR 21/21 A2990 RMK AO2
KGOP 150915Z AUTO 00000KT 10SM CLR 21/21 A2989 RMK AO2
KGOP 150855Z AUTO 00000KT 8SM CLR 21/21 A2989 RMK AO2
KGOP 150835Z AUTO 9SM CLR 21/21 A2988 RMK AO2
KGOP 150815Z AUTO 8SM CLR 21/21 A2989 RMK AO2
KGOP 150755Z AUTO 10SM CLR 21/21 A2989 RMK AO2
KGOP 150735Z AUTO 10SM CLR 21/21 A2990 RMK AO2
KGOP 150715Z AUTO 9SM CLR 21/21 A2990 RMK AO2
KGOP 150655Z AUTO 9SM CLR 21/21 A2990 RMK AO2
KGOP 150635Z AUTO 7SM CLR 20/20 A2989 RMK AO2
KGOP 150615Z AUTO 00000KT 9SM CLR 20/20 A2989 RMK AO2
KGOP 150555Z AUTO 00000KT 8SM CLR 20/20 A2989 RMK AO2